createdAt,value
2022-09-27T00:00:41.293Z,1.30
2022-09-27T00:01:41.316Z,1.10
2022-09-27T00:02:41.313Z,1.10
2022-09-27T00:03:41.268Z,1.00
2022-09-27T00:04:41.226Z,0.90
2022-09-27T00:05:41.201Z,1.10
2022-09-27T00:06:41.293Z,1.30
2022-09-27T00:07:41.182Z,1.10
2022-09-27T00:08:41.159Z,1.10
2022-09-27T00:09:41.170Z,1.10
2022-09-27T00:10:41.137Z,1.40
2022-09-27T00:11:41.138Z,1.10
2022-09-27T00:12:41.114Z,1.00
2022-09-27T00:13:41.127Z,0.90
2022-09-27T00:14:41.100Z,1.20
2022-09-27T00:15:41.102Z,1.10
2022-09-27T00:16:41.104Z,1.00
2022-09-27T00:17:41.045Z,1.00
2022-09-27T00:18:41.030Z,1.50
2022-09-27T00:19:41.035Z,1.10
2022-09-27T00:20:41.019Z,1.10
2022-09-27T00:21:41.005Z,1.20
2022-09-27T00:22:40.985Z,1.10
2022-09-27T00:23:40.968Z,1.10
2022-09-27T00:24:40.947Z,1.20
2022-09-27T00:25:40.944Z,1.20
2022-09-27T00:26:40.951Z,1.10
2022-09-27T00:27:40.960Z,1.20
2022-09-27T00:28:40.896Z,1.40
2022-09-27T00:29:40.895Z,1.20
2022-09-27T00:30:40.907Z,1.00
2022-09-27T00:31:40.872Z,1.30
2022-09-27T00:32:40.853Z,1.30
2022-09-27T00:33:40.850Z,1.20
2022-09-27T00:34:40.921Z,1.50
2022-09-27T00:35:41.067Z,1.40
2022-09-27T00:36:40.793Z,1.00
2022-09-27T00:37:40.778Z,1.10
2022-09-27T00:38:40.774Z,1.10
2022-09-27T00:39:40.790Z,1.00
2022-09-27T00:40:40.813Z,1.10
2022-09-27T00:41:40.741Z,1.20
2022-09-27T00:42:40.732Z,1.30
2022-09-27T00:43:40.713Z,1.00
2022-09-27T00:44:40.690Z,1.20
2022-09-27T00:45:40.675Z,1.10
2022-09-27T00:46:40.790Z,1.00
2022-09-27T00:47:40.660Z,1.00
2022-09-27T00:48:40.636Z,1.00
2022-09-27T00:49:40.619Z,1.00
2022-09-27T00:50:40.624Z,0.90
2022-09-27T00:51:40.605Z,1.10
2022-09-27T00:52:40.621Z,1.10
2022-09-27T00:53:40.595Z,1.20
2022-09-27T00:54:40.555Z,1.00
2022-09-27T00:55:40.561Z,1.20
2022-09-27T00:56:40.532Z,1.10
2022-09-27T00:57:40.537Z,1.00
2022-09-27T00:58:40.565Z,0.90
2022-09-27T00:59:40.514Z,1.20
2022-09-27T01:00:40.475Z,1.10
2022-09-27T01:01:40.519Z,1.10
2022-09-27T01:02:40.466Z,0.90
2022-09-27T01:03:40.447Z,1.10
2022-09-27T01:04:40.425Z,1.00
2022-09-27T01:05:40.428Z,0.90
2022-09-27T01:06:40.399Z,1.10
2022-09-27T01:07:40.417Z,1.00
2022-09-27T01:08:40.399Z,1.30
2022-09-27T01:09:40.362Z,0.90
2022-09-27T01:10:40.338Z,1.00
2022-09-27T01:11:40.340Z,1.10
2022-09-27T01:12:40.317Z,1.20
2022-09-27T01:13:40.309Z,0.90
2022-09-27T01:14:40.298Z,1.10
2022-09-27T01:15:40.344Z,1.40
2022-09-27T01:16:40.280Z,0.70
2022-09-27T01:17:40.272Z,1.00
2022-09-27T01:18:40.277Z,1.10
2022-09-27T01:19:40.253Z,0.80
2022-09-27T01:20:40.211Z,1.10
2022-09-27T01:21:40.233Z,1.20
2022-09-27T01:22:40.182Z,0.80
2022-09-27T01:23:40.176Z,0.70
2022-09-27T01:24:40.167Z,1.00
2022-09-27T01:25:40.156Z,0.80
2022-09-27T01:26:40.128Z,0.70
2022-09-27T01:27:40.137Z,1.10
2022-09-27T01:28:40.109Z,0.90
2022-09-27T01:29:40.095Z,1.00
2022-09-27T01:30:40.106Z,1.20
2022-09-27T01:31:40.067Z,1.00
2022-09-27T01:32:40.067Z,0.80
2022-09-27T01:33:40.065Z,0.80
2022-09-27T01:34:40.046Z,0.90
2022-09-27T01:35:40.021Z,0.80
2022-09-27T01:36:40.072Z,1.00
2022-09-27T01:37:40.021Z,1.10
2022-09-27T01:38:39.990Z,0.70
2022-09-27T01:39:39.970Z,1.00
2022-09-27T01:40:40.010Z,0.80
2022-09-27T01:41:39.937Z,0.80
2022-09-27T01:42:39.960Z,0.70
2022-09-27T01:43:39.908Z,0.80
2022-09-27T01:44:39.895Z,0.80
2022-09-27T01:45:39.891Z,0.80
2022-09-27T01:46:39.964Z,0.60
2022-09-27T01:47:39.873Z,0.80
2022-09-27T01:48:39.853Z,0.80
2022-09-27T01:49:39.836Z,0.80
2022-09-27T01:50:39.816Z,0.70
2022-09-27T01:51:39.808Z,0.70
2022-09-27T01:52:39.789Z,0.90
2022-09-27T01:53:39.788Z,0.80
2022-09-27T01:54:39.772Z,0.70
2022-09-27T01:55:39.759Z,0.80
2022-09-27T01:56:39.740Z,0.80
2022-09-27T01:57:39.733Z,1.00
2022-09-27T01:58:39.715Z,0.70
2022-09-27T01:59:39.710Z,0.70
2022-09-27T02:00:39.697Z,0.70
2022-09-27T02:01:39.746Z,0.80
2022-09-27T02:02:39.734Z,0.90
2022-09-27T02:03:39.664Z,0.60
2022-09-27T02:04:39.625Z,0.80
2022-09-27T02:05:39.623Z,0.70
2022-09-27T02:06:39.616Z,0.80
2022-09-27T02:07:39.604Z,0.70
2022-09-27T02:08:39.582Z,0.60
2022-09-27T02:09:39.601Z,0.70
2022-09-27T02:10:39.551Z,0.80
2022-09-27T02:11:39.548Z,0.80
2022-09-27T02:12:39.529Z,0.70
2022-09-27T02:13:39.537Z,0.70
2022-09-27T02:14:39.497Z,0.90
2022-09-27T02:15:39.645Z,0.80
2022-09-27T02:16:39.484Z,0.70
2022-09-27T02:17:39.463Z,0.80
2022-09-27T02:18:39.451Z,0.80
2022-09-27T02:19:39.439Z,0.80
2022-09-27T02:20:39.433Z,0.60
2022-09-27T02:21:39.408Z,1.00
2022-09-27T02:22:39.396Z,0.90
2022-09-27T02:23:39.378Z,0.90
2022-09-27T02:24:39.368Z,0.80
2022-09-27T02:25:39.373Z,0.80
2022-09-27T02:26:39.371Z,0.70
2022-09-27T02:27:39.330Z,0.80
2022-09-27T02:28:39.313Z,0.70
2022-09-27T02:29:39.323Z,0.70
2022-09-27T02:30:39.358Z,0.80
2022-09-27T02:31:39.296Z,0.60
2022-09-27T02:32:39.253Z,0.60
2022-09-27T02:33:39.254Z,0.80
2022-09-27T02:34:39.230Z,0.70
2022-09-27T02:35:39.225Z,0.60
2022-09-27T02:36:39.215Z,0.60
2022-09-27T02:37:39.218Z,0.90
2022-09-27T02:38:39.199Z,0.90
2022-09-27T02:39:39.190Z,0.70
2022-09-27T02:40:39.195Z,0.90
2022-09-27T02:41:39.174Z,0.90
2022-09-27T02:42:39.145Z,0.70
2022-09-27T02:43:39.117Z,0.60
2022-09-27T02:44:39.121Z,0.80
2022-09-27T02:45:39.157Z,0.50
2022-09-27T02:46:39.076Z,0.60
2022-09-27T02:47:39.093Z,0.70
2022-09-27T02:48:39.042Z,0.70
2022-09-27T02:49:39.038Z,0.70
2022-09-27T02:50:39.029Z,0.80
2022-09-27T02:51:39.046Z,0.60
2022-09-27T02:52:39.035Z,0.80
2022-09-27T02:53:38.995Z,0.80
2022-09-27T02:54:38.973Z,0.80
2022-09-27T02:55:38.959Z,0.80
2022-09-27T02:56:38.940Z,0.70
2022-09-27T02:57:38.934Z,0.80
2022-09-27T02:58:38.931Z,1.00
2022-09-27T02:59:38.918Z,0.70
2022-09-27T03:00:38.887Z,0.80
2022-09-27T03:01:38.913Z,0.60
2022-09-27T03:02:38.918Z,0.90
2022-09-27T03:03:38.849Z,0.80
2022-09-27T03:04:38.832Z,0.90
2022-09-27T03:05:38.838Z,0.80
2022-09-27T03:06:38.807Z,0.90
2022-09-27T03:07:38.806Z,0.70
2022-09-27T03:08:38.795Z,1.00
2022-09-27T03:09:38.793Z,1.00
2022-09-27T03:10:38.753Z,1.00
2022-09-27T03:11:38.777Z,0.90
2022-09-27T03:12:38.721Z,0.80
2022-09-27T03:13:50.182Z,0.70
2022-09-27T03:14:38.702Z,0.90
2022-09-27T03:15:38.698Z,0.90
2022-09-27T03:16:38.704Z,0.80
2022-09-27T03:17:38.674Z,0.90
2022-09-27T03:18:38.668Z,1.30
2022-09-27T03:19:38.633Z,0.90
2022-09-27T03:20:38.642Z,1.00
2022-09-27T03:21:38.658Z,0.70
2022-09-27T03:22:38.618Z,1.30
2022-09-27T03:23:38.578Z,1.00
2022-09-27T03:24:38.615Z,0.90
2022-09-27T03:25:38.548Z,1.10
2022-09-27T03:26:38.548Z,1.00
2022-09-27T03:27:38.522Z,1.00
2022-09-27T03:28:38.530Z,0.90
2022-09-27T03:29:38.499Z,1.30
2022-09-27T03:30:38.554Z,1.00
2022-09-27T03:31:38.478Z,0.80
2022-09-27T03:32:43.299Z,1.10
2022-09-27T03:33:38.466Z,1.00
2022-09-27T03:34:38.474Z,1.00
2022-09-27T03:35:38.420Z,0.90
2022-09-27T03:36:38.425Z,1.20
2022-09-27T03:37:38.413Z,1.40
2022-09-27T03:38:38.386Z,1.20
2022-09-27T03:39:38.369Z,1.00
2022-09-27T03:40:38.435Z,1.20
2022-09-27T03:41:38.358Z,1.10
2022-09-27T03:42:38.328Z,0.80
2022-09-27T03:43:38.312Z,0.90
2022-09-27T03:44:38.306Z,1.10
2022-09-27T03:45:38.285Z,0.90
2022-09-27T03:46:38.417Z,1.00
2022-09-27T03:47:38.293Z,0.90
2022-09-27T03:48:38.272Z,1.30
2022-09-27T03:49:38.244Z,1.50
2022-09-27T03:50:38.261Z,1.20
2022-09-27T03:51:38.204Z,1.50
2022-09-27T03:52:38.241Z,1.20
2022-09-27T03:53:38.183Z,1.10
2022-09-27T03:54:38.178Z,1.10
2022-09-27T03:55:38.157Z,1.20
2022-09-27T03:56:38.145Z,1.20
2022-09-27T03:57:38.147Z,1.10
2022-09-27T03:58:38.135Z,1.00
2022-09-27T03:59:38.099Z,1.20
2022-09-27T04:00:38.116Z,1.30
2022-09-27T04:01:38.128Z,1.60
2022-09-27T04:02:38.296Z,1.10
2022-09-27T04:03:38.076Z,1.20
2022-09-27T04:04:38.063Z,1.10
2022-09-27T04:05:38.020Z,0.90
2022-09-27T04:06:38.019Z,1.50
2022-09-27T04:07:38.024Z,1.00
2022-09-27T04:08:37.989Z,1.20
2022-09-27T04:09:41.167Z,1.00
2022-09-27T04:10:37.968Z,1.50
2022-09-27T04:11:37.952Z,1.00
2022-09-27T04:12:37.944Z,1.40
2022-09-27T04:13:37.956Z,1.10
2022-09-27T04:14:38.035Z,1.00
2022-09-27T04:15:37.904Z,1.10
2022-09-27T04:16:37.955Z,1.30
2022-09-27T04:17:37.863Z,1.20
2022-09-27T04:18:37.870Z,1.10
2022-09-27T04:19:37.839Z,1.20
2022-09-27T04:20:37.847Z,1.40
2022-09-27T04:21:37.814Z,1.20
2022-09-27T04:22:37.804Z,1.00
2022-09-27T04:23:37.791Z,1.10
2022-09-27T04:24:37.779Z,1.30
2022-09-27T04:25:37.769Z,0.90
2022-09-27T04:26:37.797Z,0.90
2022-09-27T04:27:37.737Z,1.50
2022-09-27T04:28:37.750Z,1.10
2022-09-27T04:29:37.718Z,1.10
2022-09-27T04:30:37.733Z,1.00
2022-09-27T04:31:37.693Z,1.10
2022-09-27T04:32:37.677Z,1.00
2022-09-27T04:33:37.675Z,1.40
2022-09-27T04:34:41.900Z,0.80
2022-09-27T04:35:37.632Z,1.30
2022-09-27T04:36:37.625Z,1.20
2022-09-27T04:37:37.623Z,1.30
2022-09-27T04:38:37.613Z,0.90
2022-09-27T04:39:37.579Z,1.00
2022-09-27T04:40:37.653Z,1.30
2022-09-27T04:41:37.551Z,0.90
2022-09-27T04:42:37.576Z,1.20
2022-09-27T04:43:37.522Z,0.90
2022-09-27T04:44:37.517Z,1.00
2022-09-27T04:45:37.521Z,1.00
2022-09-27T04:46:37.566Z,1.30
2022-09-27T04:47:37.527Z,1.20
2022-09-27T04:48:37.495Z,1.20
2022-09-27T04:49:37.474Z,1.20
2022-09-27T04:50:37.446Z,1.10
2022-09-27T04:51:37.474Z,1.20
2022-09-27T04:52:37.483Z,1.20
2022-09-27T04:53:37.400Z,1.30
2022-09-27T04:54:37.399Z,1.10
2022-09-27T04:55:37.478Z,1.20
2022-09-27T04:56:37.397Z,1.50
2022-09-27T04:57:37.373Z,0.80
2022-09-27T04:58:37.369Z,1.20
2022-09-27T04:59:37.366Z,1.10
2022-09-27T05:00:37.318Z,1.20
2022-09-27T05:01:37.347Z,1.20
2022-09-27T05:02:37.382Z,1.00
2022-09-27T05:03:37.270Z,1.10
2022-09-27T05:04:37.278Z,1.00
2022-09-27T05:05:37.231Z,1.10
2022-09-27T05:06:37.289Z,1.20
2022-09-27T05:07:37.212Z,1.00
2022-09-27T05:08:37.219Z,0.80
2022-09-27T05:09:37.201Z,1.30
2022-09-27T05:10:37.180Z,1.10
2022-09-27T05:11:37.179Z,1.10
2022-09-27T05:12:37.195Z,1.10
2022-09-27T05:13:37.141Z,1.10
2022-09-27T05:14:37.144Z,1.10
2022-09-27T05:15:37.135Z,1.20
2022-09-27T05:16:37.310Z,1.40
2022-09-27T05:17:37.101Z,1.00
2022-09-27T05:18:37.083Z,1.20
2022-09-27T05:19:37.072Z,1.00
2022-09-27T05:20:37.039Z,1.00
2022-09-27T05:21:37.046Z,1.00
2022-09-27T05:22:37.029Z,1.10
2022-09-27T05:23:36.993Z,1.10
2022-09-27T05:24:37.008Z,0.90
2022-09-27T05:25:36.970Z,1.00
2022-09-27T05:26:36.970Z,0.90
2022-09-27T05:27:36.953Z,1.50
2022-09-27T05:28:36.953Z,1.30
2022-09-27T05:29:36.932Z,0.90
2022-09-27T05:30:36.976Z,1.00
2022-09-27T05:31:36.912Z,1.40
2022-09-27T05:32:36.905Z,1.00
2022-09-27T05:33:36.878Z,1.10
2022-09-27T05:34:36.892Z,1.10
2022-09-27T05:35:36.843Z,1.20
2022-09-27T05:36:36.852Z,1.00
2022-09-27T05:37:36.863Z,1.20
2022-09-27T05:38:36.854Z,1.10
2022-09-27T05:39:36.788Z,1.20
2022-09-27T05:40:41.172Z,1.20
2022-09-27T05:41:36.848Z,1.30
2022-09-27T05:42:36.781Z,1.20
2022-09-27T05:43:37.496Z,1.10
2022-09-27T05:44:36.834Z,1.30
2022-09-27T05:45:36.772Z,1.20
2022-09-27T05:46:36.817Z,1.30
2022-09-27T05:47:37.038Z,1.40
2022-09-27T05:48:36.707Z,1.40
2022-09-27T05:49:36.684Z,1.40
2022-09-27T05:50:36.697Z,1.10
2022-09-27T05:51:36.651Z,1.30
2022-09-27T05:52:36.639Z,1.30
2022-09-27T05:53:36.649Z,1.30
2022-09-27T05:54:36.709Z,1.70
2022-09-27T05:55:36.576Z,1.40
2022-09-27T05:56:36.607Z,1.20
2022-09-27T05:57:36.538Z,1.30
2022-09-27T05:58:36.555Z,1.60
2022-09-27T05:59:36.550Z,1.70
2022-09-27T06:00:36.529Z,1.40
2022-09-27T06:01:36.527Z,1.70
2022-09-27T06:02:36.533Z,1.60
2022-09-27T06:03:36.489Z,1.70
2022-09-27T06:04:36.468Z,1.70
2022-09-27T06:05:36.453Z,1.80
2022-09-27T06:06:36.442Z,1.60
2022-09-27T06:07:36.441Z,1.60
2022-09-27T06:08:36.409Z,1.70
2022-09-27T06:09:36.381Z,2.30
2022-09-27T06:10:36.400Z,1.80
2022-09-27T06:11:36.362Z,2.00
2022-09-27T06:12:36.359Z,2.00
2022-09-27T06:13:36.333Z,2.40
2022-09-27T06:14:36.390Z,2.00
2022-09-27T06:15:36.304Z,1.90
2022-09-27T06:16:36.363Z,1.90
2022-09-27T06:17:36.308Z,2.20
2022-09-27T06:18:36.269Z,2.30
2022-09-27T06:19:36.259Z,2.20
2022-09-27T06:20:36.273Z,2.20
2022-09-27T06:21:36.226Z,2.40
2022-09-27T06:22:36.223Z,2.40
2022-09-27T06:23:36.210Z,3.20
2022-09-27T06:24:36.194Z,2.60
2022-09-27T06:25:36.183Z,2.60
2022-09-27T06:26:36.205Z,2.60
2022-09-27T06:27:36.162Z,3.00
2022-09-27T06:28:36.172Z,3.20
2022-09-27T06:29:36.143Z,3.00
2022-09-27T06:30:36.191Z,3.00
2022-09-27T06:31:36.107Z,3.10
2022-09-27T06:32:36.115Z,2.90
2022-09-27T06:33:36.112Z,3.50
2022-09-27T06:34:36.080Z,2.70
2022-09-27T06:35:36.063Z,3.00
2022-09-27T06:36:36.049Z,2.70
2022-09-27T06:37:36.037Z,2.60
2022-09-27T06:38:36.050Z,2.40
2022-09-27T06:39:36.066Z,2.80
2022-09-27T06:40:36.023Z,3.00
2022-09-27T06:41:35.969Z,2.60
2022-09-27T06:42:36.012Z,3.00
2022-09-27T06:43:35.956Z,2.70
2022-09-27T06:44:35.932Z,3.00
2022-09-27T06:45:35.956Z,2.80
2022-09-27T06:46:35.912Z,2.50
2022-09-27T06:47:35.964Z,2.90
2022-09-27T06:48:35.913Z,2.50
2022-09-27T06:49:35.879Z,2.50
2022-09-27T06:50:35.856Z,2.80
2022-09-27T06:51:35.836Z,2.50
2022-09-27T06:52:35.840Z,2.80
2022-09-27T06:53:35.808Z,2.70
2022-09-27T06:54:35.795Z,2.30
2022-09-27T06:55:35.788Z,2.70
2022-09-27T06:56:35.904Z,3.00
2022-09-27T06:57:35.786Z,3.00
2022-09-27T06:58:35.802Z,2.90
2022-09-27T06:59:35.767Z,3.00
2022-09-27T07:00:35.729Z,3.70
2022-09-27T07:01:35.855Z,3.40
2022-09-27T07:02:35.725Z,3.80
2022-09-27T07:03:40.173Z,3.90
2022-09-27T07:04:35.666Z,3.50
2022-09-27T07:05:35.658Z,3.60
2022-09-27T07:06:35.683Z,3.50
2022-09-27T07:07:35.619Z,3.60
2022-09-27T07:08:35.627Z,3.20
2022-09-27T07:09:35.589Z,3.40
2022-09-27T07:10:35.612Z,3.10
2022-09-27T07:11:35.608Z,3.30
2022-09-27T07:12:35.602Z,3.10
2022-09-27T07:13:35.536Z,3.00
2022-09-27T07:14:35.532Z,3.10
2022-09-27T07:15:35.520Z,3.00
2022-09-27T07:16:35.550Z,2.70
2022-09-27T07:17:35.506Z,3.00
2022-09-27T07:18:35.766Z,3.40
2022-09-27T07:19:35.462Z,2.30
2022-09-27T07:20:35.620Z,2.80
2022-09-27T07:21:35.465Z,3.00
2022-09-27T07:22:35.429Z,2.90
2022-09-27T07:23:35.402Z,2.70
2022-09-27T07:24:35.443Z,2.80
2022-09-27T07:25:35.424Z,3.10
2022-09-27T07:26:35.388Z,3.50
2022-09-27T07:27:38.385Z,2.90
2022-09-27T07:28:35.357Z,3.60
2022-09-27T07:29:35.333Z,3.40
2022-09-27T07:30:35.378Z,3.10
2022-09-27T07:31:35.305Z,3.10
2022-09-27T07:32:35.295Z,3.20
2022-09-27T07:33:36.032Z,3.20
2022-09-27T07:34:35.324Z,2.90
2022-09-27T07:35:35.251Z,2.60
2022-09-27T07:36:35.244Z,2.40
2022-09-27T07:37:35.240Z,2.50
2022-09-27T07:38:35.216Z,2.20
2022-09-27T07:39:35.241Z,2.50
2022-09-27T07:40:35.315Z,2.60
2022-09-27T07:41:35.187Z,2.50
2022-09-27T07:42:35.168Z,2.30
2022-09-27T07:43:35.161Z,2.60
2022-09-27T07:44:35.142Z,2.30
2022-09-27T07:45:35.227Z,2.70
2022-09-27T07:46:35.136Z,2.60
2022-09-27T07:47:35.111Z,2.50
2022-09-27T07:48:35.079Z,2.60
2022-09-27T07:49:35.075Z,2.90
2022-09-27T07:50:35.062Z,2.30
2022-09-27T07:51:35.088Z,2.20
2022-09-27T07:52:35.023Z,2.30
2022-09-27T07:53:35.037Z,2.40
2022-09-27T07:54:35.033Z,2.20
2022-09-27T07:55:34.988Z,2.20
2022-09-27T07:56:34.968Z,2.30
2022-09-27T07:57:34.997Z,2.20
2022-09-27T07:58:34.947Z,2.20
2022-09-27T07:59:34.959Z,2.40
2022-09-27T08:00:35.057Z,2.20
2022-09-27T08:01:34.978Z,2.30
2022-09-27T08:02:34.928Z,2.10
2022-09-27T08:03:34.899Z,2.10
2022-09-27T08:04:34.860Z,2.60
2022-09-27T08:05:34.868Z,2.10
2022-09-27T08:06:34.833Z,2.30
2022-09-27T08:07:34.829Z,2.20
2022-09-27T08:08:34.815Z,2.40
2022-09-27T08:09:34.802Z,2.10
2022-09-27T08:10:34.793Z,2.30
2022-09-27T08:11:34.781Z,2.50
2022-09-27T08:12:34.756Z,2.40
2022-09-27T08:13:34.746Z,2.80
2022-09-27T08:14:39.228Z,2.90
2022-09-27T08:15:34.757Z,3.10
2022-09-27T08:16:34.797Z,3.40
2022-09-27T08:17:34.696Z,3.50
2022-09-27T08:18:34.678Z,3.40
2022-09-27T08:19:34.699Z,2.60
2022-09-27T08:20:34.730Z,3.00
2022-09-27T08:21:34.662Z,3.10
2022-09-27T08:22:34.623Z,3.00
2022-09-27T08:23:34.632Z,3.00
2022-09-27T08:24:34.605Z,2.90
2022-09-27T08:25:34.669Z,2.70
2022-09-27T08:26:34.572Z,2.50
2022-09-27T08:27:34.598Z,2.60
2022-09-27T08:28:34.542Z,2.70
2022-09-27T08:29:34.555Z,2.60
2022-09-27T08:30:34.571Z,2.50
2022-09-27T08:31:34.602Z,2.80
2022-09-27T08:32:34.503Z,2.90
2022-09-27T08:33:40.507Z,2.90
2022-09-27T08:34:34.485Z,3.20
2022-09-27T08:35:34.481Z,3.50
2022-09-27T08:36:34.457Z,4.30
2022-09-27T08:37:34.437Z,4.50
2022-09-27T08:38:34.416Z,5.00
2022-09-27T08:39:34.426Z,5.00
2022-09-27T08:40:34.429Z,3.90
2022-09-27T08:41:34.382Z,4.00
2022-09-27T08:42:34.426Z,3.30
2022-09-27T08:43:34.353Z,3.60
2022-09-27T08:44:34.335Z,3.80
2022-09-27T08:45:34.421Z,3.60
2022-09-27T08:46:34.313Z,3.10
2022-09-27T08:47:34.319Z,2.50
2022-09-27T08:48:34.292Z,2.60
2022-09-27T08:49:34.288Z,2.10
2022-09-27T08:50:38.963Z,2.70
2022-09-27T08:51:34.255Z,2.10
2022-09-27T08:52:34.229Z,2.60
2022-09-27T08:53:34.221Z,2.20
2022-09-27T08:54:34.206Z,2.30
2022-09-27T08:55:34.235Z,2.30
2022-09-27T08:56:34.178Z,3.10
2022-09-27T08:57:34.163Z,2.50
2022-09-27T08:58:34.161Z,2.30
2022-09-27T08:59:34.154Z,2.20
2022-09-27T09:00:34.139Z,2.30
2022-09-27T09:01:34.171Z,1.80
2022-09-27T09:02:34.118Z,1.70
2022-09-27T09:03:34.102Z,1.60
2022-09-27T09:04:34.066Z,1.80
2022-09-27T09:05:34.055Z,1.70
2022-09-27T09:06:34.037Z,1.70
2022-09-27T09:07:34.034Z,2.00
2022-09-27T09:08:37.445Z,1.90
2022-09-27T09:09:34.012Z,1.60
2022-09-27T09:10:33.991Z,1.60
2022-09-27T09:11:34.044Z,1.70
2022-09-27T09:12:33.968Z,1.90
2022-09-27T09:13:33.962Z,1.60
2022-09-27T09:14:33.957Z,1.90
2022-09-27T09:15:33.938Z,1.70
2022-09-27T09:16:33.938Z,1.60
2022-09-27T09:17:33.902Z,1.60
2022-09-27T09:18:33.913Z,1.70
2022-09-27T09:19:33.890Z,1.90
2022-09-27T09:20:33.855Z,1.50
2022-09-27T09:21:33.871Z,1.50
2022-09-27T09:22:33.849Z,1.50
2022-09-27T09:23:33.822Z,1.40
2022-09-27T09:24:33.836Z,1.50
2022-09-27T09:25:33.852Z,1.40
2022-09-27T09:26:33.794Z,1.90
2022-09-27T09:27:33.771Z,1.30
2022-09-27T09:28:33.768Z,1.60
2022-09-27T09:29:33.744Z,1.30
2022-09-27T09:30:33.723Z,1.30
2022-09-27T09:31:34.099Z,1.30
2022-09-27T09:32:33.962Z,1.20
2022-09-27T09:33:34.075Z,1.30
2022-09-27T09:34:33.740Z,1.00
2022-09-27T09:35:34.248Z,1.20
2022-09-27T09:36:33.873Z,1.10
2022-09-27T09:37:33.704Z,1.20
2022-09-27T09:38:33.619Z,1.10
2022-09-27T09:39:33.641Z,1.30
2022-09-27T09:40:33.712Z,1.30
2022-09-27T09:41:33.663Z,1.50
2022-09-27T09:42:33.614Z,1.10
2022-09-27T09:43:33.574Z,1.50
2022-09-27T09:44:33.569Z,1.60
2022-09-27T09:45:33.581Z,1.20
2022-09-27T09:46:33.551Z,0.90
2022-09-27T09:47:33.605Z,0.90
2022-09-27T09:48:33.526Z,1.20
2022-09-27T09:49:33.515Z,0.90
2022-09-27T09:50:33.513Z,1.00
2022-09-27T09:51:33.474Z,0.90
2022-09-27T09:52:33.485Z,1.20
2022-09-27T09:53:33.453Z,1.20
2022-09-27T09:54:33.405Z,1.10
2022-09-27T09:55:33.398Z,1.20
2022-09-27T09:56:33.382Z,1.00
2022-09-27T09:57:33.387Z,0.90
2022-09-27T09:58:33.388Z,1.10
2022-09-27T09:59:33.360Z,1.10
2022-09-27T10:00:33.326Z,0.80
2022-09-27T10:01:33.318Z,1.00
2022-09-27T10:02:33.356Z,0.90
2022-09-27T10:03:33.321Z,0.70
2022-09-27T10:04:33.290Z,0.80
2022-09-27T10:05:33.268Z,0.90
2022-09-27T10:06:33.261Z,1.00
2022-09-27T10:07:33.278Z,0.70
2022-09-27T10:08:33.233Z,1.20
2022-09-27T10:09:33.251Z,0.90
2022-09-27T10:10:33.210Z,0.70
2022-09-27T10:11:33.191Z,1.00
2022-09-27T10:12:33.181Z,0.90
2022-09-27T10:13:33.382Z,0.80
2022-09-27T10:14:33.174Z,0.90
2022-09-27T10:15:33.162Z,0.80
2022-09-27T10:16:33.698Z,0.90
2022-09-27T10:17:33.505Z,1.00
2022-09-27T10:18:33.448Z,0.90
2022-09-27T10:19:33.356Z,1.00
2022-09-27T10:20:33.132Z,0.90
2022-09-27T10:21:33.410Z,0.80
2022-09-27T10:22:33.416Z,1.50
2022-09-27T10:23:33.365Z,1.20
2022-09-27T10:24:33.108Z,1.00
2022-09-27T10:25:33.319Z,0.80
2022-09-27T10:26:33.134Z,0.80
2022-09-27T10:27:33.028Z,1.00
2022-09-27T10:28:33.018Z,2.20
2022-09-27T10:29:37.326Z,1.10
2022-09-27T10:30:32.955Z,1.80
2022-09-27T10:31:33.013Z,0.80
2022-09-27T10:32:32.960Z,2.80
2022-09-27T10:33:33.209Z,0.90
2022-09-27T10:34:33.159Z,0.90
2022-09-27T10:35:33.306Z,0.80
2022-09-27T10:36:32.881Z,1.10
2022-09-27T10:37:32.852Z,0.60
2022-09-27T10:38:32.861Z,9.50
2022-09-27T10:39:32.885Z,1.00
2022-09-27T10:40:32.939Z,0.70
2022-09-27T10:41:32.877Z,0.80
2022-09-27T10:42:32.850Z,1.30
2022-09-27T10:43:32.885Z,1.10
2022-09-27T10:44:32.799Z,0.80
2022-09-27T10:45:32.820Z,0.80
2022-09-27T10:46:32.743Z,0.90
2022-09-27T10:47:32.760Z,0.80
2022-09-27T10:48:32.772Z,1.00
2022-09-27T10:49:32.810Z,0.90
2022-09-27T10:50:49.491Z,0.70
2022-09-27T10:51:32.721Z,0.70
2022-09-27T10:52:32.716Z,0.90
2022-09-27T10:53:32.762Z,0.70
2022-09-27T10:54:32.819Z,0.70
2022-09-27T10:55:32.758Z,1.00
2022-09-27T10:56:32.719Z,0.80
2022-09-27T10:57:32.782Z,0.90
2022-09-27T10:58:32.744Z,0.70
2022-09-27T10:59:32.587Z,0.60
2022-09-27T11:00:32.573Z,0.70
2022-09-27T11:01:32.582Z,0.80
2022-09-27T11:02:32.553Z,0.80
2022-09-27T11:03:32.506Z,1.00
2022-09-27T11:04:32.569Z,0.90
2022-09-27T11:05:32.516Z,1.00
2022-09-27T11:06:32.529Z,0.80
2022-09-27T11:07:32.499Z,0.70
2022-09-27T11:08:32.489Z,0.90
2022-09-27T11:09:32.426Z,0.90
2022-09-27T11:10:36.933Z,1.20
2022-09-27T11:11:32.443Z,1.00
2022-09-27T11:12:32.416Z,1.00
2022-09-27T11:13:32.377Z,0.70
2022-09-27T11:14:32.366Z,1.00
2022-09-27T11:15:32.380Z,0.70
2022-09-27T11:16:32.380Z,0.90
2022-09-27T11:17:32.346Z,0.90
2022-09-27T11:18:32.337Z,0.70
2022-09-27T11:19:32.334Z,0.90
2022-09-27T11:20:32.306Z,0.70
2022-09-27T11:21:32.509Z,1.80
2022-09-27T11:22:32.338Z,1.30
2022-09-27T11:23:32.261Z,2.00
2022-09-27T11:24:32.316Z,1.80
2022-09-27T11:25:32.385Z,0.90
2022-09-27T11:26:32.281Z,6.90
2022-09-27T11:27:32.247Z,1.00
2022-09-27T11:28:32.238Z,1.00
2022-09-27T11:29:32.176Z,1.30
2022-09-27T11:30:32.157Z,1.50
2022-09-27T11:31:32.232Z,1.20
2022-09-27T11:32:32.162Z,1.20
2022-09-27T11:33:32.131Z,0.90
2022-09-27T11:34:32.133Z,0.90
2022-09-27T11:35:32.116Z,1.00
2022-09-27T11:36:32.065Z,0.70
2022-09-27T11:37:32.065Z,0.80
2022-09-27T11:38:52.356Z,0.90
2022-09-27T11:39:32.040Z,0.70
2022-09-27T11:40:32.074Z,0.90
2022-09-27T11:41:32.004Z,0.90
2022-09-27T11:42:31.986Z,0.90
2022-09-27T11:43:32.025Z,1.00
2022-09-27T11:44:31.985Z,0.80
2022-09-27T11:45:50.444Z,0.80
2022-09-27T11:46:40.365Z,0.80
2022-09-27T11:47:32.111Z,1.10
2022-09-27T11:48:31.927Z,0.90
2022-09-27T11:49:31.922Z,0.70
2022-09-27T11:50:31.898Z,0.60
2022-09-27T11:51:31.862Z,0.60
2022-09-27T11:52:31.913Z,0.90
2022-09-27T11:53:31.879Z,1.50
2022-09-27T11:54:31.880Z,1.30
2022-09-27T11:55:31.812Z,0.50
2022-09-27T11:56:31.813Z,0.70
2022-09-27T11:57:31.792Z,0.30
2022-09-27T11:58:31.834Z,0.40
2022-09-27T11:59:31.757Z,0.30
2022-09-27T12:00:31.828Z,0.70
2022-09-27T12:01:31.808Z,0.40
2022-09-27T12:02:31.849Z,0.40
2022-09-27T12:03:31.744Z,0.60
2022-09-27T12:04:31.692Z,0.50
2022-09-27T12:05:31.687Z,0.80
2022-09-27T12:06:31.702Z,0.60
2022-09-27T12:07:31.670Z,0.50
2022-09-27T12:08:31.677Z,0.40
2022-09-27T12:09:31.633Z,0.40
2022-09-27T12:10:31.622Z,0.60
2022-09-27T12:11:31.799Z,0.60
2022-09-27T12:12:31.579Z,0.60
2022-09-27T12:13:31.574Z,0.80
2022-09-27T12:14:31.581Z,1.00
2022-09-27T12:15:31.670Z,0.90
2022-09-27T12:16:31.564Z,0.90
2022-09-27T12:17:31.508Z,0.90
2022-09-27T12:18:31.548Z,0.80
2022-09-27T12:19:31.512Z,1.00
2022-09-27T12:20:31.530Z,0.80
2022-09-27T12:21:31.499Z,0.80
2022-09-27T12:22:57.189Z,0.90
2022-09-27T12:23:36.388Z,0.80
2022-09-27T12:24:31.442Z,0.90
2022-09-27T12:25:31.446Z,1.00
2022-09-27T12:26:31.392Z,1.00
2022-09-27T12:27:31.379Z,0.90
2022-09-27T12:28:31.382Z,1.50
2022-09-27T12:29:31.402Z,0.80
2022-09-27T12:30:31.346Z,1.20
2022-09-27T12:31:31.476Z,1.20
2022-09-27T12:32:31.338Z,1.40
2022-09-27T12:33:31.316Z,3.80
2022-09-27T12:34:31.280Z,1.00
2022-09-27T12:35:31.278Z,1.10
2022-09-27T12:36:34.909Z,1.40
2022-09-27T12:37:31.259Z,2.70
2022-09-27T12:38:31.250Z,1.60
2022-09-27T12:39:31.236Z,3.00
2022-09-27T12:40:31.286Z,1.10
2022-09-27T12:41:31.213Z,0.80
2022-09-27T12:42:31.227Z,1.20
2022-09-27T12:43:31.184Z,1.10
2022-09-27T12:44:31.176Z,1.10
2022-09-27T12:45:31.161Z,1.40
2022-09-27T12:46:31.196Z,0.90
2022-09-27T12:47:31.149Z,0.90
2022-09-27T12:48:31.132Z,0.90
2022-09-27T12:49:31.124Z,1.20
2022-09-27T12:50:31.110Z,1.50
2022-09-27T12:51:31.101Z,1.40
2022-09-27T12:52:31.124Z,1.00
2022-09-27T12:53:31.050Z,1.20
2022-09-27T12:54:31.057Z,1.10
2022-09-27T12:55:31.075Z,0.90
2022-09-27T12:56:31.074Z,1.00
2022-09-27T12:57:31.010Z,1.00
2022-09-27T12:58:31.099Z,1.00
2022-09-27T12:59:30.957Z,0.70
2022-09-27T13:00:31.022Z,0.70
2022-09-27T13:01:31.098Z,0.70
2022-09-27T13:02:31.127Z,0.60
2022-09-27T13:03:31.216Z,0.50
2022-09-27T13:04:30.971Z,0.70
2022-09-27T13:05:31.029Z,0.50
2022-09-27T13:06:30.921Z,0.80
2022-09-27T13:07:30.851Z,0.60
2022-09-27T13:08:30.957Z,0.90
2022-09-27T13:09:30.828Z,0.60
2022-09-27T13:10:30.876Z,1.40
2022-09-27T13:11:30.858Z,0.70
2022-09-27T13:12:30.831Z,0.40
2022-09-27T13:13:35.591Z,0.30
2022-09-27T13:14:30.922Z,0.50
2022-09-27T13:15:30.759Z,0.30
2022-09-27T13:16:30.770Z,0.60
2022-09-27T13:17:30.721Z,0.50
2022-09-27T13:18:30.738Z,0.40